Time;durP1;ratioP1;P1;durP2;ratioP2;P2;SDS_P1;SDS_P2;PMS_P1;PMS_P2;Temp;Humidity;BMP_temperature;BMP_pressure;BME280_temperature;BME280_humidity;BME280_pressure;Samples;Min_cycle;Max_cycle;Signal;HPM_P1;HPM_P2
2022/05/12 00:00:16;;;;;;;0.10;0.10;;;11.60;99.90;;;;;;5011116;28;20046;-71
2022/05/12 00:02:42;;;;;;;0.10;0.10;;;11.50;99.90;;;;;;5012867;28;20050;-70
2022/05/12 00:05:08;;;;;;;0.47;0.47;;;11.50;99.90;;;;;;5012821;28;20045;-71
2022/05/12 00:07:34;;;;;;;0.00;0.00;;;11.60;99.90;;;;;;5013631;28;20037;-71
2022/05/12 00:10:00;;;;;;;0.10;0.10;;;11.60;99.90;;;;;;5030614;28;20111;-71
2022/05/12 00:12:26;;;;;;;0.10;0.10;;;11.60;99.90;;;;;;5032532;28;20065;-71
2022/05/12 00:14:51;;;;;;;0.65;0.43;;;11.40;99.90;;;;;;5016686;28;20129;-71
2022/05/12 00:17:17;;;;;;;0.03;0.03;;;11.50;99.90;;;;;;5013028;28;20540;-71
2022/05/12 00:19:43;;;;;;;0.10;0.10;;;11.50;99.90;;;;;;5012969;28;20045;-71
2022/05/12 00:22:08;;;;;;;0.10;0.10;;;11.50;99.90;;;;;;5009976;28;20046;-71
2022/05/12 00:24:34;;;;;;;0.10;0.10;;;11.50;99.90;;;;;;5010981;28;20099;-71
2022/05/12 00:26:59;;;;;;;0.22;0.22;;;11.50;99.90;;;;;;5012298;28;20180;-71
2022/05/12 00:29:25;;;;;;;0.10;0.10;;;11.50;99.90;;;;;;5011547;28;20120;-71
2022/05/12 00:31:51;;;;;;;0.10;0.10;;;11.40;99.90;;;;;;5011386;28;20103;-71
2022/05/12 00:34:19;;;;;;;0.10;0.10;;;11.40;99.90;;;;;;5012139;28;20053;-71
2022/05/12 00:36:46;;;;;;;0.03;0.03;;;11.40;99.90;;;;;;5011787;28;20046;-71
2022/05/12 00:39:12;;;;;;;0.08;0.08;;;11.40;99.90;;;;;;5010503;28;20061;-71
2022/05/12 00:41:38;;;;;;;0.10;0.10;;;11.40;99.90;;;;;;5011926;28;20620;-71
2022/05/12 00:44:08;;;;;;;1.55;0.38;;;11.40;99.90;;;;;;5011437;28;20073;-71
2022/05/12 00:46:38;;;;;;;0.10;0.10;;;11.40;99.90;;;;;;5011855;28;20046;-71
2022/05/12 00:49:11;;;;;;;0.00;0.00;;;11.30;99.90;;;;;;5010559;28;20045;-71
2022/05/12 00:52:01;;;;;;;0.10;0.10;;;11.30;99.90;;;;;;5011229;28;20069;-71
2022/05/12 00:54:44;;;;;;;0.00;0.00;;;11.30;99.90;;;;;;5012024;28;20058;-71
2022/05/12 00:57:14;;;;;;;0.00;0.00;;;11.30;99.90;;;;;;5010864;28;20061;-71
2022/05/12 00:59:40;;;;;;;0.10;0.10;;;11.30;99.90;;;;;;5011116;28;20049;-71
2022/05/12 01:02:14;;;;;;;0.15;0.15;;;11.30;99.90;;;;;;5010300;28;20053;-71
2022/05/12 01:04:41;;;;;;;0.10;0.10;;;11.30;99.90;;;;;;5021607;28;20405;-71
2022/05/12 01:07:07;;;;;;;0.17;0.17;;;11.40;99.90;;;;;;5029216;28;20736;-71
2022/05/12 01:09:33;;;;;;;0.05;0.05;;;11.40;99.90;;;;;;5031248;28;20116;-71
2022/05/12 01:11:59;;;;;;;0.10;0.10;;;11.40;99.90;;;;;;5028787;28;20046;-71
2022/05/12 01:14:25;;;;;;;0.00;0.00;;;11.40;99.90;;;;;;5023778;28;20034;-71
2022/05/12 01:16:54;;;;;;;0.10;0.10;;;11.40;99.90;;;;;;5010385;28;20092;-71
2022/05/12 01:19:24;;;;;;;0.10;0.10;;;11.40;99.90;;;;;;5010289;28;20156;-71
2022/05/12 01:21:51;;;;;;;0.00;0.00;;;11.40;99.90;;;;;;5011689;28;20076;-71
2022/05/12 01:24:19;;;;;;;0.00;0.00;;;11.40;99.90;;;;;;5011025;28;20068;-71
2022/05/12 01:26:45;;;;;;;0.10;0.10;;;11.40;99.90;;;;;;5029679;28;20437;-71
2022/05/12 01:29:11;;;;;;;1.48;1.38;;;11.40;99.90;;;;;;5029845;28;20041;-70
2022/05/12 01:31:37;;;;;;;0.00;0.00;;;11.30;99.90;;;;;;5028483;28;20053;-71
2022/05/12 01:34:05;;;;;;;0.00;0.00;;;11.30;99.90;;;;;;5029401;28;20439;-71
2022/05/12 01:36:32;;;;;;;0.05;0.05;;;11.40;99.90;;;;;;5028693;28;20053;-71
2022/05/12 01:38:58;;;;;;;1.27;0.57;;;11.30;99.90;;;;;;5028894;28;20045;-71
2022/05/12 01:41:24;;;;;;;2.67;1.50;;;11.30;99.90;;;;;;5028071;28;20053;-71
2022/05/12 01:43:49;;;;;;;0.10;0.10;;;11.30;99.90;;;;;;5030916;28;20117;-71
2022/05/12 01:46:15;;;;;;;0.10;0.10;;;11.20;99.90;;;;;;5029496;28;20064;-70
2022/05/12 01:48:41;;;;;;;0.00;0.00;;;11.20;99.90;;;;;;5028788;28;20038;-71
2022/05/12 01:51:09;;;;;;;0.75;0.75;;;11.20;99.90;;;;;;5030596;28;20060;-71
2022/05/12 01:53:34;;;;;;;0.10;0.10;;;11.20;99.90;;;;;;5029997;28;20045;-71
2022/05/12 01:56:00;;;;;;;0.10;0.10;;;11.20;99.90;;;;;;5028332;28;20064;-71
2022/05/12 01:58:26;;;;;;;0.17;0.17;;;11.20;99.90;;;;;;5030280;28;20144;-71
2022/05/12 02:00:52;;;;;;;0.10;0.10;;;11.20;99.90;;;;;;5029596;28;20038;-71
2022/05/12 02:03:18;;;;;;;0.00;0.00;;;11.20;99.90;;;;;;5009145;28;20100;-71
2022/05/12 02:05:45;;;;;;;0.10;0.10;;;11.20;99.90;;;;;;5009591;28;20460;-71
2022/05/12 02:08:12;;;;;;;0.10;0.10;;;11.30;99.90;;;;;;5009899;28;20037;-71
2022/05/12 02:10:40;;;;;;;0.15;0.15;;;11.30;99.90;;;;;;5010761;28;20096;-71
2022/05/12 02:13:08;;;;;;;0.03;0.03;;;11.20;99.90;;;;;;5009156;28;20041;-71
2022/05/12 02:15:34;;;;;;;0.95;0.95;;;11.30;99.90;;;;;;5012086;28;20136;-71
2022/05/12 02:18:00;;;;;;;0.10;0.10;;;11.20;99.90;;;;;;5010596;28;20124;-71
2022/05/12 02:20:25;;;;;;;0.00;0.00;;;11.20;99.90;;;;;;5010776;28;20454;-71
2022/05/12 02:22:51;;;;;;;0.10;0.10;;;11.20;99.90;;;;;;5029648;28;20056;-71
2022/05/12 02:25:17;;;;;;;0.00;0.00;;;11.30;99.90;;;;;;5030470;28;20374;-71
2022/05/12 02:27:45;;;;;;;2.38;0.80;;;11.20;99.90;;;;;;5030199;28;20055;-71
2022/05/12 02:30:20;;;;;;;0.10;0.10;;;11.20;99.90;;;;;;5018286;28;20045;-71
2022/05/12 02:32:46;;;;;;;0.13;0.13;;;11.20;99.90;;;;;;5010567;28;20070;-71
2022/05/12 02:35:12;;;;;;;0.10;0.10;;;11.20;99.90;;;;;;5009756;28;20056;-71
2022/05/12 02:37:39;;;;;;;0.00;0.00;;;11.20;99.90;;;;;;5008907;28;20045;-71
2022/05/12 02:40:05;;;;;;;0.00;0.00;;;11.10;99.90;;;;;;5007451;28;20065;-71
2022/05/12 02:42:31;;;;;;;4.03;1.95;;;11.10;99.90;;;;;;5009784;28;20038;-71
2022/05/12 02:44:57;;;;;;;0.57;0.57;;;11.10;99.90;;;;;;5009500;28;20057;-71
2022/05/12 02:47:23;;;;;;;0.00;0.00;;;11.10;99.90;;;;;;5010111;28;20099;-71
2022/05/12 02:49:48;;;;;;;0.10;0.10;;;11.00;99.90;;;;;;5022344;28;20045;-71
2022/05/12 02:52:14;;;;;;;0.08;0.08;;;11.00;99.90;;;;;;5029734;28;20045;-71
2022/05/12 02:54:40;;;;;;;0.00;0.00;;;11.10;99.90;;;;;;5026999;28;20103;-71
2022/05/12 02:57:05;;;;;;;0.73;0.73;;;11.10;99.90;;;;;;5028551;28;20107;-71
2022/05/12 02:59:31;;;;;;;0.20;0.20;;;11.10;99.90;;;;;;5026207;28;20045;-71
2022/05/12 03:01:58;;;;;;;0.03;0.03;;;11.20;99.90;;;;;;5029956;28;20779;-71
2022/05/12 03:04:24;;;;;;;0.25;0.25;;;11.10;99.90;;;;;;5029208;28;20508;-71
2022/05/12 03:06:50;;;;;;;0.00;0.00;;;11.10;99.90;;;;;;5021213;28;20045;-71
2022/05/12 03:09:15;;;;;;;1.20;0.28;;;11.10;99.90;;;;;;5010038;28;20393;-71
2022/05/12 03:11:41;;;;;;;0.00;0.00;;;11.10;99.90;;;;;;5011524;28;20401;-71
2022/05/12 03:14:06;;;;;;;0.00;0.00;;;11.00;99.90;;;;;;5016156;28;20137;-71
2022/05/12 03:16:33;;;;;;;0.10;0.10;;;11.10;99.90;;;;;;5013583;28;20050;-71
2022/05/12 03:18:58;;;;;;;0.00;0.00;;;11.10;99.90;;;;;;5011226;28;20042;-71
2022/05/12 03:21:24;;;;;;;0.10;0.10;;;11.10;99.90;;;;;;5032890;28;20059;-71
2022/05/12 03:23:50;;;;;;;0.10;0.10;;;11.10;99.90;;;;;;5033742;28;20069;-71
2022/05/12 03:26:16;;;;;;;0.03;0.03;;;11.10;99.90;;;;;;5030470;28;20072;-71
2022/05/12 03:28:42;;;;;;;0.10;0.10;;;11.10;99.90;;;;;;5033175;28;20037;-71
2022/05/12 03:31:08;;;;;;;0.10;0.10;;;11.00;99.90;;;;;;5032142;28;20056;-71
2022/05/12 03:33:35;;;;;;;0.00;0.00;;;11.00;99.90;;;;;;5030314;28;20042;-71
2022/05/12 03:36:01;;;;;;;0.10;0.10;;;11.00;99.90;;;;;;5033147;28;20049;-71
2022/05/12 03:38:27;;;;;;;0.17;0.17;;;10.90;99.90;;;;;;5032254;28;20060;-71
2022/05/12 03:40:53;;;;;;;0.10;0.10;;;11.00;99.90;;;;;;5029697;28;20041;-71
2022/05/12 03:46:07;;;;;;;0.10;0.10;;;11.00;99.90;;;;;;5012588;28;20053;-71
2022/05/12 03:48:36;;;;;;;0.00;0.00;;;11.00;99.90;;;;;;5013104;28;20081;-71
2022/05/12 03:51:03;;;;;;;0.08;0.08;;;11.00;99.90;;;;;;5011595;28;20478;-71
2022/05/12 03:53:30;;;;;;;0.10;0.10;;;11.10;99.90;;;;;;5012439;28;20050;-71
2022/05/12 03:55:56;;;;;;;0.00;0.00;;;11.00;99.90;;;;;;5013495;28;20052;-71
2022/05/12 03:58:21;;;;;;;0.10;0.10;;;11.00;99.90;;;;;;5010848;28;20140;-71
2022/05/12 04:00:50;;;;;;;0.95;0.90;;;10.90;99.90;;;;;;5011008;28;20061;-71
2022/05/12 04:03:16;;;;;;;3.83;0.55;;;10.90;99.90;;;;;;5019029;28;20052;-71
2022/05/12 04:05:42;;;;;;;0.15;0.15;;;10.90;99.90;;;;;;5030757;28;20045;-71
2022/05/12 04:08:07;;;;;;;1.20;0.93;;;10.80;99.90;;;;;;5031966;28;20785;-71
2022/05/12 04:10:33;;;;;;;0.10;0.10;;;10.80;99.90;;;;;;5028470;28;20049;-71
2022/05/12 04:12:59;;;;;;;0.47;0.47;;;10.90;99.90;;;;;;5012233;28;20046;-71
2022/05/12 04:15:24;;;;;;;0.28;0.28;;;10.80;99.90;;;;;;5014182;28;20049;-71
2022/05/12 04:17:59;;;;;;;0.20;0.20;;;10.80;99.90;;;;;;5011516;28;20132;-71
2022/05/12 04:20:26;;;;;;;15.27;1.75;;;10.90;99.90;;;;;;5022073;28;20053;-71
2022/05/12 04:22:51;;;;;;;0.20;0.20;;;10.90;99.90;;;;;;5030270;28;20481;-71
2022/05/12 04:25:17;;;;;;;0.10;0.10;;;11.00;99.90;;;;;;5031221;28;20218;-71
2022/05/12 04:27:43;;;;;;;0.95;0.95;;;11.00;99.90;;;;;;5023098;28;20030;-71
2022/05/12 04:30:11;;;;;;;0.10;0.10;;;11.00;99.90;;;;;;5012243;28;20050;-71
2022/05/12 04:32:38;;;;;;;0.15;0.15;;;11.10;99.90;;;;;;5012123;28;20084;-71
2022/05/12 04:35:14;;;;;;;0.00;0.00;;;11.10;99.90;;;;;;5015883;28;20128;-72
2022/05/12 04:37:54;;;;;;;0.30;0.30;;;11.10;99.90;;;;;;5031927;28;20163;-71
2022/05/12 04:40:29;;;;;;;0.22;0.22;;;11.10;99.90;;;;;;5030248;28;20057;-71
2022/05/12 04:42:56;;;;;;;0.10;0.10;;;11.10;99.90;;;;;;5027847;28;20141;-71
2022/05/12 04:45:25;;;;;;;0.10;0.10;;;11.10;99.90;;;;;;5031503;28;20045;-71
2022/05/12 04:47:51;;;;;;;0.10;0.10;;;11.20;99.90;;;;;;5032320;28;20371;-71
2022/05/12 04:50:22;;;;;;;0.10;0.10;;;11.20;99.90;;;;;;5029301;28;20118;-71
2022/05/12 04:52:48;;;;;;;0.10;0.10;;;11.20;99.90;;;;;;5029803;28;20069;-71
2022/05/12 04:55:15;;;;;;;2.03;1.75;;;11.20;99.90;;;;;;5030332;28;20072;-71
2022/05/12 04:57:43;;;;;;;0.00;0.00;;;11.20;99.90;;;;;;5030528;28;20051;-71
2022/05/12 05:00:13;;;;;;;0.10;0.10;;;11.20;99.90;;;;;;5031564;28;20073;-71
2022/05/12 05:02:40;;;;;;;0.00;0.00;;;11.20;99.90;;;;;;5028746;28;20045;-71
2022/05/12 05:05:06;;;;;;;0.30;0.30;;;11.20;99.90;;;;;;5030234;28;20045;-71
2022/05/12 05:07:32;;;;;;;0.00;0.00;;;11.20;99.90;;;;;;5031242;28;20076;-71
2022/05/12 05:09:58;;;;;;;0.05;0.05;;;11.20;99.90;;;;;;5025375;28;20074;-71
2022/05/12 05:12:23;;;;;;;0.10;0.10;;;11.30;99.90;;;;;;5011292;28;20052;-71
2022/05/12 05:14:49;;;;;;;0.28;0.25;;;11.30;99.90;;;;;;5021601;28;20479;-71
2022/05/12 05:17:15;;;;;;;0.00;0.00;;;11.30;99.90;;;;;;5030554;28;20103;-71
2022/05/12 05:19:41;;;;;;;0.30;0.30;;;11.30;99.90;;;;;;5028923;28;20458;-71
2022/05/12 05:22:07;;;;;;;0.00;0.00;;;11.40;99.90;;;;;;5024239;28;20049;-71
2022/05/12 05:24:34;;;;;;;0.45;0.40;;;11.40;99.90;;;;;;5010467;28;20045;-71
2022/05/12 05:27:00;;;;;;;0.00;0.00;;;11.40;99.90;;;;;;5011369;28;20112;-71
2022/05/12 05:29:25;;;;;;;1.45;0.82;;;11.50;99.90;;;;;;5011331;28;20045;-71
2022/05/12 05:31:51;;;;;;;0.10;0.10;;;11.50;99.90;;;;;;5022768;28;20038;-71
2022/05/12 05:34:17;;;;;;;0.90;0.35;;;11.60;99.90;;;;;;5028932;28;20884;-71
2022/05/12 05:36:44;;;;;;;0.10;0.10;;;11.60;99.90;;;;;;5030797;28;20045;-71
2022/05/12 05:39:25;;;;;;;0.00;0.00;;;11.70;99.90;;;;;;5019200;28;20050;-71
2022/05/12 05:41:55;;;;;;;3.60;2.08;;;11.70;99.90;;;;;;5011529;28;20038;-71
2022/05/12 05:44:20;;;;;;;0.20;0.20;;;11.80;99.90;;;;;;5010959;28;20053;-71
2022/05/12 05:46:46;;;;;;;0.10;0.10;;;11.80;99.90;;;;;;5029937;28;20045;-71
2022/05/12 05:49:11;;;;;;;0.10;0.10;;;11.90;99.90;;;;;;5030440;28;20052;-71
2022/05/12 05:54:21;;;;;;;8.70;0.80;;;12.00;99.90;;;;;;5009335;28;20085;-71
2022/05/12 05:56:47;;;;;;;0.00;0.00;;;12.10;99.90;;;;;;5017915;28;20089;-71
2022/05/12 05:59:13;;;;;;;3.00;0.45;;;12.10;99.90;;;;;;5021619;28;20525;-72
2022/05/12 06:01:38;;;;;;;0.10;0.10;;;12.20;99.90;;;;;;5012606;28;20180;-72
2022/05/12 06:04:05;;;;;;;0.10;0.10;;;12.20;99.90;;;;;;5013172;28;20094;-72
2022/05/12 06:06:30;;;;;;;0.28;0.25;;;12.20;99.90;;;;;;5009540;28;20498;-72
2022/05/12 06:08:56;;;;;;;0.10;0.10;;;12.30;99.90;;;;;;5009668;28;20050;-72
2022/05/12 06:11:21;;;;;;;0.10;0.10;;;12.40;99.90;;;;;;5010627;28;20057;-72
2022/05/12 06:13:47;;;;;;;10.63;1.65;;;12.40;99.90;;;;;;5011573;28;20073;-72
2022/05/12 06:16:14;;;;;;;0.10;0.10;;;12.50;99.90;;;;;;5015355;28;20073;-72
2022/05/12 06:18:41;;;;;;;0.10;0.10;;;12.60;99.90;;;;;;5010770;28;20046;-72
2022/05/12 06:21:09;;;;;;;0.17;0.17;;;12.60;99.90;;;;;;5016349;28;20559;-72
2022/05/12 06:23:35;;;;;;;0.85;0.85;;;12.60;99.90;;;;;;5029804;28;20504;-72
2022/05/12 06:26:01;;;;;;;0.10;0.10;;;12.60;99.90;;;;;;5027745;28;20041;-72
2022/05/12 06:28:28;;;;;;;0.10;0.10;;;12.70;99.90;;;;;;5029476;28;20046;-73
2022/05/12 06:30:53;;;;;;;0.08;0.08;;;12.70;99.90;;;;;;5029070;28;20049;-73
2022/05/12 06:33:19;;;;;;;1.02;0.63;;;12.80;99.90;;;;;;5026647;28;20176;-73
2022/05/12 06:35:47;;;;;;;0.10;0.10;;;12.80;99.90;;;;;;5027634;28;20053;-73
2022/05/12 06:38:13;;;;;;;0.10;0.10;;;12.90;99.90;;;;;;5028711;28;20045;-72
2022/05/12 06:40:39;;;;;;;0.80;0.80;;;12.90;99.90;;;;;;5021869;28;20443;-73
2022/05/12 06:43:05;;;;;;;0.10;0.10;;;12.90;99.90;;;;;;5009985;28;20041;-73
2022/05/12 06:45:31;;;;;;;0.10;0.10;;;13.00;99.90;;;;;;5009408;28;20049;-73
2022/05/12 06:47:56;;;;;;;0.10;0.10;;;13.00;99.90;;;;;;5013370;28;20050;-74
2022/05/12 06:50:25;;;;;;;0.10;0.10;;;13.10;99.90;;;;;;5013265;28;20053;-73
2022/05/12 06:52:52;;;;;;;0.00;0.00;;;13.10;99.90;;;;;;5013214;28;20046;-73
2022/05/12 06:55:19;;;;;;;0.00;0.00;;;13.20;99.90;;;;;;5012325;28;20092;-73
2022/05/12 06:57:45;;;;;;;0.43;0.43;;;13.20;99.90;;;;;;5013261;28;20062;-73
2022/05/12 07:00:13;;;;;;;0.10;0.10;;;13.30;99.90;;;;;;5012883;28;20046;-73
2022/05/12 07:02:39;;;;;;;0.10;0.10;;;13.30;99.90;;;;;;5011982;28;20046;-74
2022/05/12 07:05:06;;;;;;;0.00;0.00;;;13.30;99.90;;;;;;5011839;28;20058;-74
2022/05/12 07:07:31;;;;;;;0.10;0.10;;;13.30;99.90;;;;;;5013766;28;20061;-73
2022/05/12 07:09:57;;;;;;;0.00;0.00;;;13.40;99.90;;;;;;5013640;28;20046;-73
2022/05/12 07:12:23;;;;;;;0.10;0.10;;;13.40;99.90;;;;;;5014142;28;20923;-73
2022/05/12 07:14:49;;;;;;;0.10;0.10;;;13.40;99.90;;;;;;5022728;28;20042;-73
2022/05/12 07:17:20;;;;;;;0.10;0.10;;;13.50;99.90;;;;;;5031650;28;20396;-73
2022/05/12 07:19:45;;;;;;;1.25;0.82;;;13.50;99.90;;;;;;5032091;28;20382;-73
2022/05/12 07:27:39;;;;;;;0.63;0.55;;;13.60;99.90;;;;;;5033429;28;20053;-73
2022/05/12 07:30:06;;;;;;;0.10;0.10;;;13.70;99.90;;;;;;5012797;28;20113;-73
2022/05/12 07:32:32;;;;;;;0.00;0.00;;;13.70;99.90;;;;;;5012971;28;20082;-73
2022/05/12 07:34:57;;;;;;;0.00;0.00;;;13.80;99.90;;;;;;5013314;28;20084;-73
2022/05/12 07:37:24;;;;;;;0.10;0.10;;;13.80;99.90;;;;;;5014721;28;20026;-73
2022/05/12 07:39:49;;;;;;;0.20;0.20;;;13.80;99.90;;;;;;5032951;28;20112;-73
2022/05/12 07:42:15;;;;;;;0.20;0.20;;;13.90;99.90;;;;;;5030102;28;20045;-73
2022/05/12 07:44:40;;;;;;;0.65;0.55;;;13.90;99.90;;;;;;5031977;28;20091;-72
2022/05/12 07:47:10;;;;;;;0.00;0.00;;;14.00;99.90;;;;;;5030931;28;20092;-72
2022/05/12 07:49:37;;;;;;;30.00;1.10;;;14.00;99.90;;;;;;5032763;28;20090;-72
2022/05/12 07:52:09;;;;;;;0.10;0.10;;;14.00;99.90;;;;;;5030578;28;20056;-72
2022/05/12 07:54:35;;;;;;;0.10;0.10;;;14.00;99.90;;;;;;5029571;28;20060;-72
2022/05/12 07:57:02;;;;;;;1.45;1.35;;;14.10;99.90;;;;;;5031872;28;20107;-72
2022/05/12 07:59:29;;;;;;;0.10;0.10;;;14.20;99.90;;;;;;5029981;28;20053;-72
2022/05/12 08:01:58;;;;;;;1.00;1.00;;;14.20;99.90;;;;;;5029356;28;20511;-72
2022/05/12 08:04:24;;;;;;;0.10;0.10;;;14.30;99.90;;;;;;5012415;28;20130;-72
2022/05/12 08:06:50;;;;;;;0.03;0.03;;;14.20;99.90;;;;;;5012351;28;20104;-73
2022/05/12 08:09:15;;;;;;;0.10;0.10;;;14.30;99.90;;;;;;5010294;28;20038;-73
2022/05/12 08:11:41;;;;;;;0.63;0.57;;;14.40;99.90;;;;;;5031183;28;20045;-73
2022/05/12 08:14:07;;;;;;;0.10;0.10;;;14.40;99.90;;;;;;5026738;28;20042;-74
2022/05/12 08:16:33;;;;;;;0.00;0.00;;;14.50;99.90;;;;;;5011205;28;20493;-73
2022/05/12 08:18:59;;;;;;;1.02;0.63;;;14.50;99.90;;;;;;5011712;28;20049;-74
2022/05/12 08:21:25;;;;;;;0.10;0.10;;;14.60;99.90;;;;;;5011573;28;20486;-73
2022/05/12 08:23:51;;;;;;;0.25;0.25;;;14.60;99.90;;;;;;5012659;28;20500;-73
2022/05/12 08:26:18;;;;;;;0.15;0.15;;;14.70;99.90;;;;;;5018918;28;20671;-74
2022/05/12 08:28:44;;;;;;;0.10;0.10;;;14.70;99.90;;;;;;5010215;28;20054;-73
2022/05/12 08:31:10;;;;;;;0.00;0.00;;;14.70;99.90;;;;;;5014787;28;20034;-73
2022/05/12 08:33:35;;;;;;;0.10;0.10;;;14.70;99.90;;;;;;5012027;28;20095;-73
2022/05/12 08:36:02;;;;;;;0.43;0.43;;;14.80;99.90;;;;;;5017119;28;20053;-73
2022/05/12 08:38:27;;;;;;;0.45;0.45;;;14.90;99.90;;;;;;5030549;28;20053;-74
2022/05/12 08:41:03;;;;;;;0.00;0.00;;;14.80;99.90;;;;;;5031249;28;20792;-74
2022/05/12 08:43:43;;;;;;;0.10;0.10;;;14.80;99.90;;;;;;5031688;28;20041;-73
2022/05/12 08:46:17;;;;;;;0.80;0.80;;;14.80;99.90;;;;;;5028026;28;20148;-74
2022/05/12 08:48:43;;;;;;;;;;;14.90;99.90;;;;;;5029789;28;20057;-74
2022/05/12 08:51:15;;;;;;;1.77;1.65;;;14.90;99.90;;;;;;5030314;28;20349;-73
2022/05/12 08:54:04;;;;;;;0.00;0.00;;;15.00;99.90;;;;;;5012537;28;20054;-73
2022/05/12 08:56:32;;;;;;;3.45;0.95;;;15.10;99.90;;;;;;5030489;28;20053;-73
2022/05/12 08:58:59;;;;;;;2.10;0.98;;;15.20;99.90;;;;;;5030153;28;20081;-73
2022/05/12 09:01:40;;;;;;;0.10;0.10;;;15.20;99.90;;;;;;5028381;28;20049;-73
2022/05/12 09:04:31;;;;;;;0.00;0.00;;;15.30;99.90;;;;;;5009600;28;20421;-73
2022/05/12 09:07:16;;;;;;;0.10;0.10;;;15.40;99.90;;;;;;5011925;28;20128;-73
2022/05/12 09:09:57;;;;;;;0.30;0.30;;;15.50;99.90;;;;;;5009631;28;20061;-72
2022/05/12 09:12:44;;;;;;;0.10;0.10;;;16.00;99.90;;;;;;5010133;28;20065;-72
2022/05/12 09:15:18;;;;;;;0.43;0.43;;;16.20;99.90;;;;;;5013076;28;20485;-72
2022/05/12 09:17:47;;;;;;;0.10;0.10;;;16.30;99.90;;;;;;5010959;28;20053;-72
2022/05/12 09:20:13;;;;;;;0.77;0.65;;;16.30;99.90;;;;;;5011534;28;20049;-73
2022/05/12 09:22:41;;;;;;;0.10;0.10;;;16.30;99.90;;;;;;5011670;28;20049;-73
2022/05/12 09:25:08;;;;;;;0.43;0.43;;;16.20;99.90;;;;;;5028524;28;20045;-72
2022/05/12 09:27:37;;;;;;;0.10;0.10;;;16.20;99.90;;;;;;5029277;28;20053;-72
2022/05/12 09:30:06;;;;;;;0.75;0.60;;;16.20;99.90;;;;;;5011242;28;20463;-73
2022/05/12 09:32:34;;;;;;;0.17;0.17;;;16.30;99.90;;;;;;5011125;28;20061;-73
2022/05/12 09:35:19;;;;;;;0.30;0.30;;;16.50;99.90;;;;;;5011244;28;20042;-72
2022/05/12 09:37:45;;;;;;;0.00;0.00;;;17.00;99.90;;;;;;5009890;28;20049;-72
2022/05/12 09:40:16;;;;;;;0.05;0.05;;;17.50;99.90;;;;;;5017172;28;20473;-72
2022/05/12 09:42:45;;;;;;;0.00;0.00;;;18.00;99.90;;;;;;5030567;28;20038;-72
2022/05/12 09:45:29;;;;;;;0.52;0.52;;;18.40;99.90;;;;;;5030064;28;20041;-73
2022/05/12 09:48:23;;;;;;;0.10;0.10;;;18.70;99.90;;;;;;5031079;28;20045;-73
2022/05/12 09:50:50;;;;;;;0.10;0.10;;;18.80;99.90;;;;;;5028532;28;20067;-73
2022/05/12 09:53:30;;;;;;;0.00;0.00;;;18.80;99.90;;;;;;5017883;28;20048;-73
2022/05/12 09:56:00;;;;;;;0.10;0.10;;;18.80;99.90;;;;;;5010922;28;20064;-72
2022/05/12 09:58:34;;;;;;;0.77;0.40;;;18.90;99.90;;;;;;5009594;28;20112;-72
2022/05/12 10:01:15;;;;;;;0.00;0.00;;;19.10;99.90;;;;;;5027330;28;20064;-72
2022/05/12 10:09:24;;;;;;;0.00;0.00;;;19.30;99.90;;;;;;5029484;28;20056;-72
2022/05/12 10:12:22;;;;;;;0.00;0.00;;;19.40;99.90;;;;;;5029137;28;20037;-72
2022/05/12 10:15:20;;;;;;;0.40;0.40;;;19.40;99.90;;;;;;5021812;28;20057;-72
2022/05/12 10:17:53;;;;;;;0.32;0.13;;;19.50;99.90;;;;;;5030397;28;20045;-72
2022/05/12 10:20:21;;;;;;;0.00;0.00;;;19.60;99.90;;;;;;5027549;28;20049;-71
2022/05/12 10:22:59;;;;;;;0.10;0.10;;;19.60;99.90;;;;;;5027903;28;20513;-72
2022/05/12 10:25:57;;;;;;;0.10;0.10;;;19.30;99.90;;;;;;5028913;28;20053;-73
2022/05/12 10:28:49;;;;;;;0.00;0.00;;;19.10;99.90;;;;;;5022417;28;20149;-72
2022/05/12 10:32:01;;;;;;;0.43;0.43;;;19.00;99.90;;;;;;5022123;28;20076;-72
2022/05/12 10:34:48;;;;;;;0.00;0.00;;;18.90;99.90;;;;;;5029218;28;20119;-71
2022/05/12 10:37:51;;;;;;;0.47;0.17;;;18.70;99.90;;;;;;5029965;28;20052;-71
2022/05/12 10:40:30;;;;;;;0.10;0.10;;;18.60;99.90;;;;;;5028109;28;20053;-72
2022/05/12 10:43:24;;;;;;;0.00;0.00;;;18.70;99.90;;;;;;5027689;28;20501;-72
2022/05/12 10:46:18;;;;;;;9.75;2.72;;;18.60;99.90;;;;;;5030262;28;20536;-72
2022/05/12 10:49:05;;;;;;;0.08;0.08;;;18.50;99.90;;;;;;5029389;28;20041;-73
2022/05/12 10:52:04;;;;;;;0.00;0.00;;;18.60;99.90;;;;;;5027927;28;20037;-74
2022/05/12 10:54:57;;;;;;;0.22;0.22;;;18.40;99.90;;;;;;5029370;28;20447;-73
2022/05/12 10:57:56;;;;;;;0.00;0.00;;;18.20;99.90;;;;;;5029623;28;20053;-72
2022/05/12 11:00:48;;;;;;;0.00;0.00;;;18.60;99.90;;;;;;5011909;28;20401;-72
2022/05/12 11:03:23;;;;;;;0.10;0.10;;;18.80;99.90;;;;;;5009694;28;20049;-72
2022/05/12 11:05:59;;;;;;;0.00;0.00;;;18.70;99.90;;;;;;5008947;28;20042;-72
2022/05/12 11:08:40;;;;;;;0.00;0.00;;;18.70;99.90;;;;;;5020772;28;20153;-71
2022/05/12 11:11:10;;;;;;;0.00;0.00;;;18.80;99.90;;;;;;5029777;28;20073;-72
2022/05/12 11:13:42;;;;;;;0.15;0.15;;;19.00;99.90;;;;;;5016902;28;20124;-71
2022/05/12 11:16:29;;;;;;;1.65;0.40;;;19.10;99.90;;;;;;5009472;28;20104;-71
2022/05/12 11:19:33;;;;;;;0.00;0.00;;;19.50;99.90;;;;;;5010369;28;20046;-71
2022/05/12 11:22:10;;;;;;;;;;;19.40;99.90;;;;;;5025404;28;20419;-72
2022/05/12 11:24:56;;;;;;;0.00;0.00;;;19.30;99.90;;;;;;5026374;28;19995;-72
2022/05/12 11:27:33;;;;;;;0.50;0.50;;;19.60;99.90;;;;;;5013756;28;20120;-72
2022/05/12 11:30:27;;;;;;;0.40;0.40;;;19.50;99.90;;;;;;5020654;28;20060;-71
2022/05/12 11:33:25;;;;;;;23.45;1.35;;;19.70;99.90;;;;;;5030516;28;20046;-71
2022/05/12 11:35:52;;;;;;;0.03;0.03;;;19.60;99.90;;;;;;5033007;28;20071;-71
2022/05/12 11:38:37;;;;;;;0.20;0.20;;;19.50;99.90;;;;;;5032397;28;20045;-71
2022/05/12 11:41:04;;;;;;;0.22;0.22;;;19.40;99.90;;;;;;5014294;28;20401;-71
2022/05/12 11:46:56;;;;;;;0.10;0.10;;;20.20;99.90;;;;;;5012273;28;20061;-71
2022/05/12 11:49:51;;;;;;;11.02;0.75;;;20.30;99.90;;;;;;5012630;28;20108;-72
2022/05/12 11:52:58;;;;;;;0.00;0.00;;;20.30;99.90;;;;;;5012419;28;20481;-72
2022/05/12 11:55:32;;;;;;;0.00;0.00;;;20.10;99.90;;;;;;5030774;28;20050;-72
2022/05/12 11:58:04;;;;;;;0.90;0.85;;;20.00;99.90;;;;;;5031588;28;20053;-72
2022/05/12 12:00:35;;;;;;;0.00;0.00;;;20.40;99.90;;;;;;5030526;28;20048;-72
2022/05/12 12:03:18;;;;;;;1.35;0.47;;;21.00;99.90;;;;;;5032090;28;20053;-72
2022/05/12 12:05:58;;;;;;;0.10;0.10;;;20.20;99.40;;;;;;5025555;28;20046;-72
2022/05/12 12:08:32;;;;;;;0.20;0.20;;;20.00;98.90;;;;;;5010882;28;20042;-72
2022/05/12 12:11:13;;;;;;;0.00;0.00;;;19.60;99.70;;;;;;5012388;28;20042;-72
2022/05/12 12:13:44;;;;;;;0.00;0.00;;;19.30;99.90;;;;;;5014118;28;20045;-72
2022/05/12 12:16:12;;;;;;;1.30;1.15;;;19.70;99.90;;;;;;5020906;28;20452;-72
2022/05/12 12:18:38;;;;;;;0.10;0.10;;;19.90;98.80;;;;;;5031993;28;20837;-72
2022/05/12 12:21:43;;;;;;;0.00;0.00;;;19.60;98.70;;;;;;5031731;28;20052;-72
2022/05/12 12:24:20;;;;;;;15.00;0.45;;;19.80;98.90;;;;;;5029925;28;20986;-71
2022/05/12 12:26:54;;;;;;;0.10;0.10;;;20.20;97.60;;;;;;5029842;28;20085;-72
2022/05/12 12:29:40;;;;;;;0.20;0.10;;;20.10;98.10;;;;;;5031379;28;20405;-71
2022/05/12 12:32:30;;;;;;;0.10;0.10;;;19.90;98.00;;;;;;5031786;28;20084;-72
2022/05/12 12:35:12;;;;;;;0.60;0.45;;;20.20;98.70;;;;;;5027645;28;20053;-72
2022/05/12 12:37:48;;;;;;;0.00;0.00;;;20.40;98.10;;;;;;5031981;28;20096;-72
2022/05/12 12:40:32;;;;;;;0.00;0.00;;;20.60;99.60;;;;;;5010899;28;20128;-72
2022/05/12 12:43:18;;;;;;;;;;;20.80;97.60;;;;;;5011023;28;20134;-72
2022/05/12 12:45:52;;;;;;;0.00;0.00;;;21.00;97.30;;;;;;5011611;28;19921;-71
2022/05/12 12:48:37;;;;;;;0.00;0.00;;;21.30;97.80;;;;;;5024966;28;20131;-71
2022/05/12 12:51:03;;;;;;;0.00;0.00;;;21.20;96.90;;;;;;5029504;28;20128;-71
2022/05/12 12:56:34;;;;;;;0.35;0.25;;;21.20;95.70;;;;;;5010385;28;20046;-71
2022/05/12 12:59:22;;;;;;;0.00;0.00;;;21.30;95.60;;;;;;5011608;28;20053;-72
2022/05/12 13:01:51;;;;;;;0.00;0.00;;;21.40;96.80;;;;;;5011243;28;20050;-71
2022/05/12 13:04:25;;;;;;;0.13;0.13;;;21.50;96.20;;;;;;5011909;28;20046;-71
2022/05/12 13:06:54;;;;;;;0.00;0.00;;;21.60;97.60;;;;;;5010777;28;20045;-71
2022/05/12 13:09:31;;;;;;;0.00;0.00;;;22.00;97.30;;;;;;5009268;28;20041;-71
2022/05/12 13:12:27;;;;;;;0.55;0.45;;;21.70;96.20;;;;;;5028357;28;20097;-71
2022/05/12 13:14:55;;;;;;;0.00;0.00;;;21.60;96.40;;;;;;5014781;28;20060;-71
2022/05/12 13:17:38;;;;;;;0.43;0.43;;;21.60;96.20;;;;;;5010724;28;20080;-71
2022/05/12 13:20:12;;;;;;;1.15;0.80;;;21.80;96.00;;;;;;5010546;28;20159;-72
2022/05/12 13:22:48;;;;;;;0.00;0.00;;;21.70;95.90;;;;;;5009032;28;20073;-71
2022/05/12 13:25:20;;;;;;;0.08;0.08;;;21.50;95.90;;;;;;5011218;28;20085;-71
2022/05/12 13:27:46;;;;;;;0.00;0.00;;;21.50;95.90;;;;;;5013030;28;20474;-71
2022/05/12 13:30:20;;;;;;;0.08;0.05;;;21.90;96.10;;;;;;5010453;28;20038;-71